sensor_id;sensor_type;location;lat;lon;timestamp;temperature;humidity
20811;DHT22;10566;52.928;10.522;2022-12-24T00:01:24;5.30;99.90
20811;DHT22;10566;52.928;10.522;2022-12-24T00:03:50;5.30;99.90
20811;DHT22;10566;52.928;10.522;2022-12-24T00:06:18;5.30;99.90
20811;DHT22;10566;52.928;10.522;2022-12-24T00:08:44;5.30;99.90
20811;DHT22;10566;52.928;10.522;2022-12-24T00:11:09;5.30;99.90
20811;DHT22;10566;52.928;10.522;2022-12-24T00:13:35;5.30;99.90
20811;DHT22;10566;52.928;10.522;2022-12-24T00:16:01;5.30;99.90
20811;DHT22;10566;52.928;10.522;2022-12-24T00:18:26;5.30;99.90
20811;DHT22;10566;52.928;10.522;2022-12-24T00:20:52;5.30;99.90
20811;DHT22;10566;52.928;10.522;2022-12-24T00:23:18;5.30;99.90
20811;DHT22;10566;52.928;10.522;2022-12-24T00:25:44;5.20;99.90
20811;DHT22;10566;52.928;10.522;2022-12-24T00:28:10;5.30;99.90
20811;DHT22;10566;52.928;10.522;2022-12-24T00:30:39;5.20;99.90
20811;DHT22;10566;52.928;10.522;2022-12-24T00:33:05;5.20;99.90
20811;DHT22;10566;52.928;10.522;2022-12-24T00:35:33;5.20;99.90
20811;DHT22;10566;52.928;10.522;2022-12-24T00:37:58;5.20;99.90
20811;DHT22;10566;52.928;10.522;2022-12-24T00:40:24;5.20;99.90
20811;DHT22;10566;52.928;10.522;2022-12-24T00:42:49;5.20;99.90
20811;DHT22;10566;52.928;10.522;2022-12-24T00:45:15;5.20;99.90
20811;DHT22;10566;52.928;10.522;2022-12-24T00:47:41;5.20;99.90
20811;DHT22;10566;52.928;10.522;2022-12-24T00:50:07;5.20;99.90
20811;DHT22;10566;52.928;10.522;2022-12-24T00:52:32;5.20;99.90
20811;DHT22;10566;52.928;10.522;2022-12-24T00:54:58;5.20;99.90
20811;DHT22;10566;52.928;10.522;2022-12-24T00:57:24;5.20;99.90
20811;DHT22;10566;52.928;10.522;2022-12-24T00:59:49;5.20;99.90
20811;DHT22;10566;52.928;10.522;2022-12-24T01:02:15;5.20;99.90
20811;DHT22;10566;52.928;10.522;2022-12-24T01:04:40;5.20;99.90
20811;DHT22;10566;52.928;10.522;2022-12-24T01:07:24;5.20;99.90
20811;DHT22;10566;52.928;10.522;2022-12-24T01:09:50;5.20;99.90
20811;DHT22;10566;52.928;10.522;2022-12-24T01:12:15;5.20;99.90
20811;DHT22;10566;52.928;10.522;2022-12-24T01:14:41;5.20;99.90
20811;DHT22;10566;52.928;10.522;2022-12-24T01:17:07;5.20;99.90
20811;DHT22;10566;52.928;10.522;2022-12-24T01:19:33;5.20;99.90
20811;DHT22;10566;52.928;10.522;2022-12-24T01:21:58;5.20;99.90
20811;DHT22;10566;52.928;10.522;2022-12-24T01:24:24;5.20;99.90
20811;DHT22;10566;52.928;10.522;2022-12-24T01:26:50;5.20;99.90
20811;DHT22;10566;52.928;10.522;2022-12-24T01:29:16;5.20;99.90
20811;DHT22;10566;52.928;10.522;2022-12-24T01:31:42;5.20;99.90
20811;DHT22;10566;52.928;10.522;2022-12-24T01:34:10;5.10;99.90
20811;DHT22;10566;52.928;10.522;2022-12-24T01:36:36;5.10;99.90
20811;DHT22;10566;52.928;10.522;2022-12-24T01:39:02;5.10;99.90
20811;DHT22;10566;52.928;10.522;2022-12-24T01:41:29;5.10;99.90
20811;DHT22;10566;52.928;10.522;2022-12-24T01:44:29;5.10;99.90
20811;DHT22;10566;52.928;10.522;2022-12-24T01:47:10;5.20;99.90
20811;DHT22;10566;52.928;10.522;2022-12-24T01:49:41;5.10;99.90
20811;DHT22;10566;52.928;10.522;2022-12-24T01:52:17;5.10;99.90
20811;DHT22;10566;52.928;10.522;2022-12-24T01:55:09;5.10;99.90
20811;DHT22;10566;52.928;10.522;2022-12-24T01:57:46;5.10;99.90
20811;DHT22;10566;52.928;10.522;2022-12-24T02:00:14;5.10;99.90
20811;DHT22;10566;52.928;10.522;2022-12-24T02:02:43;5.10;99.90
20811;DHT22;10566;52.928;10.522;2022-12-24T02:05:21;5.10;99.90
20811;DHT22;10566;52.928;10.522;2022-12-24T02:07:48;5.10;99.90
20811;DHT22;10566;52.928;10.522;2022-12-24T02:10:15;5.10;99.90
20811;DHT22;10566;52.928;10.522;2022-12-24T02:12:41;5.10;99.90
20811;DHT22;10566;52.928;10.522;2022-12-24T02:15:11;5.10;99.90
20811;DHT22;10566;52.928;10.522;2022-12-24T02:17:45;5.10;99.90
20811;DHT22;10566;52.928;10.522;2022-12-24T02:20:30;5.10;99.90
20811;DHT22;10566;52.928;10.522;2022-12-24T02:31:51;5.10;99.90
20811;DHT22;10566;52.928;10.522;2022-12-24T02:34:36;5.00;99.90
20811;DHT22;10566;52.928;10.522;2022-12-24T02:37:17;5.10;99.90
20811;DHT22;10566;52.928;10.522;2022-12-24T02:39:58;5.10;99.90
20811;DHT22;10566;52.928;10.522;2022-12-24T02:42:31;5.00;99.90
20811;DHT22;10566;52.928;10.522;2022-12-24T02:45:11;5.10;99.90
20811;DHT22;10566;52.928;10.522;2022-12-24T02:47:38;5.10;99.90
20811;DHT22;10566;52.928;10.522;2022-12-24T02:50:06;5.10;99.90
20811;DHT22;10566;52.928;10.522;2022-12-24T02:52:35;5.10;99.90
20811;DHT22;10566;52.928;10.522;2022-12-24T02:55:08;5.10;99.90
20811;DHT22;10566;52.928;10.522;2022-12-24T03:00:26;5.10;99.90
20811;DHT22;10566;52.928;10.522;2022-12-24T03:11:00;5.10;99.90
20811;DHT22;10566;52.928;10.522;2022-12-24T03:13:27;5.10;99.90
20811;DHT22;10566;52.928;10.522;2022-12-24T03:15:54;5.10;99.90
20811;DHT22;10566;52.928;10.522;2022-12-24T03:18:23;5.10;99.90
20811;DHT22;10566;52.928;10.522;2022-12-24T03:21:25;5.00;99.90
20811;DHT22;10566;52.928;10.522;2022-12-24T03:23:52;5.00;99.90
20811;DHT22;10566;52.928;10.522;2022-12-24T03:26:18;5.00;99.90
20811;DHT22;10566;52.928;10.522;2022-12-24T03:28:45;5.00;99.90
20811;DHT22;10566;52.928;10.522;2022-12-24T03:31:12;5.00;99.90
20811;DHT22;10566;52.928;10.522;2022-12-24T03:33:38;5.00;99.90
20811;DHT22;10566;52.928;10.522;2022-12-24T03:36:05;5.00;99.90
20811;DHT22;10566;52.928;10.522;2022-12-24T03:38:31;5.00;99.90
20811;DHT22;10566;52.928;10.522;2022-12-24T03:40:56;5.00;99.90
20811;DHT22;10566;52.928;10.522;2022-12-24T03:43:22;5.10;99.90
20811;DHT22;10566;52.928;10.522;2022-12-24T03:45:48;5.00;99.90
20811;DHT22;10566;52.928;10.522;2022-12-24T03:48:13;5.00;99.90
20811;DHT22;10566;52.928;10.522;2022-12-24T03:50:39;5.00;99.90
20811;DHT22;10566;52.928;10.522;2022-12-24T03:53:04;5.00;99.90
20811;DHT22;10566;52.928;10.522;2022-12-24T03:55:30;5.00;99.90
20811;DHT22;10566;52.928;10.522;2022-12-24T03:57:55;5.00;99.90
20811;DHT22;10566;52.928;10.522;2022-12-24T04:00:21;5.00;99.90
20811;DHT22;10566;52.928;10.522;2022-12-24T04:02:47;5.00;99.90
20811;DHT22;10566;52.928;10.522;2022-12-24T04:05:16;5.00;99.90
20811;DHT22;10566;52.928;10.522;2022-12-24T04:07:43;5.00;99.90
20811;DHT22;10566;52.928;10.522;2022-12-24T04:10:09;5.00;99.90
20811;DHT22;10566;52.928;10.522;2022-12-24T04:12:36;5.00;99.90
20811;DHT22;10566;52.928;10.522;2022-12-24T04:15:01;5.00;99.90
20811;DHT22;10566;52.928;10.522;2022-12-24T04:17:27;5.00;99.90
20811;DHT22;10566;52.928;10.522;2022-12-24T04:19:52;5.00;99.90
20811;DHT22;10566;52.928;10.522;2022-12-24T04:22:18;5.00;99.90
20811;DHT22;10566;52.928;10.522;2022-12-24T04:24:44;5.10;99.90
20811;DHT22;10566;52.928;10.522;2022-12-24T04:27:09;5.10;99.90
20811;DHT22;10566;52.928;10.522;2022-12-24T04:29:35;5.10;99.90
20811;DHT22;10566;52.928;10.522;2022-12-24T04:32:00;5.00;99.90
20811;DHT22;10566;52.928;10.522;2022-12-24T04:34:26;5.00;99.90
20811;DHT22;10566;52.928;10.522;2022-12-24T04:36:52;5.00;99.90
20811;DHT22;10566;52.928;10.522;2022-12-24T04:39:18;5.00;99.90
20811;DHT22;10566;52.928;10.522;2022-12-24T04:41:43;5.00;99.90
20811;DHT22;10566;52.928;10.522;2022-12-24T04:44:09;5.00;99.90
20811;DHT22;10566;52.928;10.522;2022-12-24T04:46:35;5.00;99.90
20811;DHT22;10566;52.928;10.522;2022-12-24T04:49:01;5.00;99.90
20811;DHT22;10566;52.928;10.522;2022-12-24T04:51:27;5.00;99.90
20811;DHT22;10566;52.928;10.522;2022-12-24T04:53:53;5.00;99.90
20811;DHT22;10566;52.928;10.522;2022-12-24T04:56:22;4.90;99.90
20811;DHT22;10566;52.928;10.522;2022-12-24T04:58:49;5.00;99.90
20811;DHT22;10566;52.928;10.522;2022-12-24T05:01:22;5.00;99.90
20811;DHT22;10566;52.928;10.522;2022-12-24T05:03:48;5.00;99.90
20811;DHT22;10566;52.928;10.522;2022-12-24T05:06:17;5.00;99.90
20811;DHT22;10566;52.928;10.522;2022-12-24T05:08:43;5.00;99.90
20811;DHT22;10566;52.928;10.522;2022-12-24T05:11:09;5.00;99.90
20811;DHT22;10566;52.928;10.522;2022-12-24T05:13:38;5.00;99.90
20811;DHT22;10566;52.928;10.522;2022-12-24T05:16:04;4.90;99.90
20811;DHT22;10566;52.928;10.522;2022-12-24T05:18:30;4.90;99.90
20811;DHT22;10566;52.928;10.522;2022-12-24T05:20:55;5.00;99.90
20811;DHT22;10566;52.928;10.522;2022-12-24T05:23:23;4.90;99.90
20811;DHT22;10566;52.928;10.522;2022-12-24T05:26:25;5.00;99.90
20811;DHT22;10566;52.928;10.522;2022-12-24T05:28:54;4.90;99.90
20811;DHT22;10566;52.928;10.522;2022-12-24T05:31:21;4.90;99.90
20811;DHT22;10566;52.928;10.522;2022-12-24T05:33:46;4.90;99.90
20811;DHT22;10566;52.928;10.522;2022-12-24T05:36:13;4.90;99.90
20811;DHT22;10566;52.928;10.522;2022-12-24T05:38:38;4.90;99.90
20811;DHT22;10566;52.928;10.522;2022-12-24T05:41:05;4.90;99.90
20811;DHT22;10566;52.928;10.522;2022-12-24T05:43:31;4.90;99.90
20811;DHT22;10566;52.928;10.522;2022-12-24T05:46:01;4.90;99.90
20811;DHT22;10566;52.928;10.522;2022-12-24T05:48:27;4.90;99.90
20811;DHT22;10566;52.928;10.522;2022-12-24T05:50:54;4.90;99.90
20811;DHT22;10566;52.928;10.522;2022-12-24T05:53:20;4.90;99.90
20811;DHT22;10566;52.928;10.522;2022-12-24T05:55:45;5.00;99.90
20811;DHT22;10566;52.928;10.522;2022-12-24T05:58:11;5.00;99.90
20811;DHT22;10566;52.928;10.522;2022-12-24T06:00:37;5.00;99.90
20811;DHT22;10566;52.928;10.522;2022-12-24T06:03:03;5.00;99.90
20811;DHT22;10566;52.928;10.522;2022-12-24T06:05:29;4.90;99.90
20811;DHT22;10566;52.928;10.522;2022-12-24T06:07:55;4.90;99.90
20811;DHT22;10566;52.928;10.522;2022-12-24T06:10:20;4.90;99.90
20811;DHT22;10566;52.928;10.522;2022-12-24T06:12:46;4.90;99.90
20811;DHT22;10566;52.928;10.522;2022-12-24T06:15:12;4.90;99.90
20811;DHT22;10566;52.928;10.522;2022-12-24T06:17:38;5.00;99.90
20811;DHT22;10566;52.928;10.522;2022-12-24T06:20:04;5.00;99.90
20811;DHT22;10566;52.928;10.522;2022-12-24T06:22:30;5.00;99.90
20811;DHT22;10566;52.928;10.522;2022-12-24T06:24:55;5.00;99.90
20811;DHT22;10566;52.928;10.522;2022-12-24T06:27:21;4.90;99.90
20811;DHT22;10566;52.928;10.522;2022-12-24T06:29:47;5.00;99.90
20811;DHT22;10566;52.928;10.522;2022-12-24T06:32:12;5.00;99.90
20811;DHT22;10566;52.928;10.522;2022-12-24T06:34:38;5.00;99.90
20811;DHT22;10566;52.928;10.522;2022-12-24T06:37:03;5.00;99.90
20811;DHT22;10566;52.928;10.522;2022-12-24T06:39:29;5.00;99.90
20811;DHT22;10566;52.928;10.522;2022-12-24T06:41:54;5.00;99.90
20811;DHT22;10566;52.928;10.522;2022-12-24T06:44:20;5.00;99.90
20811;DHT22;10566;52.928;10.522;2022-12-24T06:46:46;5.00;99.90
20811;DHT22;10566;52.928;10.522;2022-12-24T06:49:11;5.00;99.90
20811;DHT22;10566;52.928;10.522;2022-12-24T06:51:37;5.00;99.90
20811;DHT22;10566;52.928;10.522;2022-12-24T06:54:03;5.00;99.90
20811;DHT22;10566;52.928;10.522;2022-12-24T06:56:29;5.00;99.90
20811;DHT22;10566;52.928;10.522;2022-12-24T06:58:54;5.00;99.90
20811;DHT22;10566;52.928;10.522;2022-12-24T07:01:20;5.00;99.90
20811;DHT22;10566;52.928;10.522;2022-12-24T07:03:46;5.00;99.90
20811;DHT22;10566;52.928;10.522;2022-12-24T07:06:23;5.00;99.90
20811;DHT22;10566;52.928;10.522;2022-12-24T07:08:48;5.00;99.90
20811;DHT22;10566;52.928;10.522;2022-12-24T07:11:14;5.00;99.90
20811;DHT22;10566;52.928;10.522;2022-12-24T07:13:40;5.00;99.90
20811;DHT22;10566;52.928;10.522;2022-12-24T07:16:05;5.00;99.90
20811;DHT22;10566;52.928;10.522;2022-12-24T07:18:31;5.00;99.90
20811;DHT22;10566;52.928;10.522;2022-12-24T07:20:56;5.00;99.90
20811;DHT22;10566;52.928;10.522;2022-12-24T07:23:22;5.00;99.90
20811;DHT22;10566;52.928;10.522;2022-12-24T07:25:48;5.00;99.90
20811;DHT22;10566;52.928;10.522;2022-12-24T07:28:13;5.00;99.90
20811;DHT22;10566;52.928;10.522;2022-12-24T07:30:39;5.00;99.90
20811;DHT22;10566;52.928;10.522;2022-12-24T07:33:05;5.00;99.90
20811;DHT22;10566;52.928;10.522;2022-12-24T07:35:30;5.00;99.90
20811;DHT22;10566;52.928;10.522;2022-12-24T07:37:56;5.00;99.90
20811;DHT22;10566;52.928;10.522;2022-12-24T07:40:21;5.00;99.90
20811;DHT22;10566;52.928;10.522;2022-12-24T07:42:47;5.00;99.90
20811;DHT22;10566;52.928;10.522;2022-12-24T07:45:12;5.00;99.90
20811;DHT22;10566;52.928;10.522;2022-12-24T07:47:38;5.00;99.90
20811;DHT22;10566;52.928;10.522;2022-12-24T07:50:04;5.00;99.90
20811;DHT22;10566;52.928;10.522;2022-12-24T07:52:30;5.00;99.90
20811;DHT22;10566;52.928;10.522;2022-12-24T07:54:56;5.00;99.90
20811;DHT22;10566;52.928;10.522;2022-12-24T07:57:21;5.00;99.90
20811;DHT22;10566;52.928;10.522;2022-12-24T07:59:47;5.00;99.90
20811;DHT22;10566;52.928;10.522;2022-12-24T08:02:13;5.00;99.90
20811;DHT22;10566;52.928;10.522;2022-12-24T08:04:38;5.00;99.90
20811;DHT22;10566;52.928;10.522;2022-12-24T08:07:05;4.90;99.90
20811;DHT22;10566;52.928;10.522;2022-12-24T08:09:32;5.00;99.90
20811;DHT22;10566;52.928;10.522;2022-12-24T08:11:57;5.00;99.90
20811;DHT22;10566;52.928;10.522;2022-12-24T08:14:23;5.00;99.90
20811;DHT22;10566;52.928;10.522;2022-12-24T08:16:49;5.00;99.90
20811;DHT22;10566;52.928;10.522;2022-12-24T08:19:14;5.00;99.90
20811;DHT22;10566;52.928;10.522;2022-12-24T08:21:40;5.00;99.90
20811;DHT22;10566;52.928;10.522;2022-12-24T08:24:05;5.00;99.90
20811;DHT22;10566;52.928;10.522;2022-12-24T08:26:31;5.00;99.90
20811;DHT22;10566;52.928;10.522;2022-12-24T08:28:57;5.10;99.90
20811;DHT22;10566;52.928;10.522;2022-12-24T08:31:22;5.20;99.90
20811;DHT22;10566;52.928;10.522;2022-12-24T08:33:48;5.20;99.90
20811;DHT22;10566;52.928;10.522;2022-12-24T08:36:13;5.20;99.90
20811;DHT22;10566;52.928;10.522;2022-12-24T08:38:39;5.20;99.90
20811;DHT22;10566;52.928;10.522;2022-12-24T08:41:05;5.20;99.90
20811;DHT22;10566;52.928;10.522;2022-12-24T08:43:30;5.30;99.90
20811;DHT22;10566;52.928;10.522;2022-12-24T08:46:01;5.30;99.90
20811;DHT22;10566;52.928;10.522;2022-12-24T08:48:28;5.30;99.90
20811;DHT22;10566;52.928;10.522;2022-12-24T08:50:54;5.40;99.90
20811;DHT22;10566;52.928;10.522;2022-12-24T08:53:19;5.40;99.90
20811;DHT22;10566;52.928;10.522;2022-12-24T08:55:45;5.40;99.90
20811;DHT22;10566;52.928;10.522;2022-12-24T08:58:10;5.50;99.90
20811;DHT22;10566;52.928;10.522;2022-12-24T09:00:36;5.50;99.90
20811;DHT22;10566;52.928;10.522;2022-12-24T09:03:02;5.50;99.90
20811;DHT22;10566;52.928;10.522;2022-12-24T09:05:27;5.60;99.90
20811;DHT22;10566;52.928;10.522;2022-12-24T09:07:53;5.60;99.90
20811;DHT22;10566;52.928;10.522;2022-12-24T09:10:19;5.60;99.90
20811;DHT22;10566;52.928;10.522;2022-12-24T09:12:45;5.60;99.90
20811;DHT22;10566;52.928;10.522;2022-12-24T09:15:11;5.60;99.90
20811;DHT22;10566;52.928;10.522;2022-12-24T09:17:38;5.60;99.90
20811;DHT22;10566;52.928;10.522;2022-12-24T09:20:05;5.60;99.90
20811;DHT22;10566;52.928;10.522;2022-12-24T09:22:33;5.70;99.90
20811;DHT22;10566;52.928;10.522;2022-12-24T09:24:58;5.80;99.90
20811;DHT22;10566;52.928;10.522;2022-12-24T09:27:24;5.90;99.90
20811;DHT22;10566;52.928;10.522;2022-12-24T09:29:49;6.00;99.90
20811;DHT22;10566;52.928;10.522;2022-12-24T09:32:15;6.20;99.90
20811;DHT22;10566;52.928;10.522;2022-12-24T09:34:40;6.30;99.90
20811;DHT22;10566;52.928;10.522;2022-12-24T09:37:06;6.50;99.90
20811;DHT22;10566;52.928;10.522;2022-12-24T09:39:32;6.60;99.90
20811;DHT22;10566;52.928;10.522;2022-12-24T09:44:48;7.30;99.90
20811;DHT22;10566;52.928;10.522;2022-12-24T09:47:24;7.60;99.90
20811;DHT22;10566;52.928;10.522;2022-12-24T09:49:52;7.80;99.90
20811;DHT22;10566;52.928;10.522;2022-12-24T09:52:31;7.80;99.90
20811;DHT22;10566;52.928;10.522;2022-12-24T09:57:41;8.00;99.90
20811;DHT22;10566;52.928;10.522;2022-12-24T10:00:25;8.00;99.90
20811;DHT22;10566;52.928;10.522;2022-12-24T10:02:51;8.00;99.90
20811;DHT22;10566;52.928;10.522;2022-12-24T10:05:26;8.00;99.90
20811;DHT22;10566;52.928;10.522;2022-12-24T10:08:16;8.00;99.90
20811;DHT22;10566;52.928;10.522;2022-12-24T10:10:52;8.00;99.90
20811;DHT22;10566;52.928;10.522;2022-12-24T10:13:40;8.00;99.90
20811;DHT22;10566;52.928;10.522;2022-12-24T10:16:25;8.00;99.90
20811;DHT22;10566;52.928;10.522;2022-12-24T10:22:06;8.10;99.90
20811;DHT22;10566;52.928;10.522;2022-12-24T10:27:18;8.30;99.90
20811;DHT22;10566;52.928;10.522;2022-12-24T10:29:48;8.30;99.90
20811;DHT22;10566;52.928;10.522;2022-12-24T10:32:26;8.50;99.90
20811;DHT22;10566;52.928;10.522;2022-12-24T10:37:40;8.80;99.90
20811;DHT22;10566;52.928;10.522;2022-12-24T10:40:07;8.90;99.90
20811;DHT22;10566;52.928;10.522;2022-12-24T10:42:40;8.90;99.90
20811;DHT22;10566;52.928;10.522;2022-12-24T10:45:15;8.80;99.90
20811;DHT22;10566;52.928;10.522;2022-12-24T10:47:42;8.80;99.90
20811;DHT22;10566;52.928;10.522;2022-12-24T10:50:30;8.80;99.90
20811;DHT22;10566;52.928;10.522;2022-12-24T10:53:13;8.80;99.90
20811;DHT22;10566;52.928;10.522;2022-12-24T10:55:40;8.80;99.90
20811;DHT22;10566;52.928;10.522;2022-12-24T10:58:12;8.70;99.90
20811;DHT22;10566;52.928;10.522;2022-12-24T11:00:39;8.80;99.90
20811;DHT22;10566;52.928;10.522;2022-12-24T11:05:38;8.80;99.90
20811;DHT22;10566;52.928;10.522;2022-12-24T11:08:13;8.80;99.90
20811;DHT22;10566;52.928;10.522;2022-12-24T11:10:52;8.70;99.90
20811;DHT22;10566;52.928;10.522;2022-12-24T11:13:30;8.70;99.90
20811;DHT22;10566;52.928;10.522;2022-12-24T11:16:28;8.70;99.90
20811;DHT22;10566;52.928;10.522;2022-12-24T11:18:56;8.80;99.90
20811;DHT22;10566;52.928;10.522;2022-12-24T11:21:31;8.80;99.90
20811;DHT22;10566;52.928;10.522;2022-12-24T11:24:42;8.80;99.90
20811;DHT22;10566;52.928;10.522;2022-12-24T11:26:48;8.70;99.90
20811;DHT22;10566;52.928;10.522;2022-12-24T11:29:25;8.70;99.90
20811;DHT22;10566;52.928;10.522;2022-12-24T11:31:51;8.70;99.90
20811;DHT22;10566;52.928;10.522;2022-12-24T11:34:26;8.80;99.90
20811;DHT22;10566;52.928;10.522;2022-12-24T11:36:53;8.80;99.90
20811;DHT22;10566;52.928;10.522;2022-12-24T11:39:22;8.80;99.90
20811;DHT22;10566;52.928;10.522;2022-12-24T11:41:49;8.90;99.90
20811;DHT22;10566;52.928;10.522;2022-12-24T11:44:27;8.90;99.90
20811;DHT22;10566;52.928;10.522;2022-12-24T11:46:54;8.90;99.90
20811;DHT22;10566;52.928;10.522;2022-12-24T11:49:30;9.00;99.90
20811;DHT22;10566;52.928;10.522;2022-12-24T11:52:23;9.10;99.90
20811;DHT22;10566;52.928;10.522;2022-12-24T11:57:46;9.20;99.90
20811;DHT22;10566;52.928;10.522;2022-12-24T12:00:14;9.30;99.90
20811;DHT22;10566;52.928;10.522;2022-12-24T12:02:42;9.30;99.90
20811;DHT22;10566;52.928;10.522;2022-12-24T12:05:20;9.40;99.90
20811;DHT22;10566;52.928;10.522;2022-12-24T12:07:49;9.30;99.90
20811;DHT22;10566;52.928;10.522;2022-12-24T12:10:21;9.40;99.90
20811;DHT22;10566;52.928;10.522;2022-12-24T12:15:24;9.30;99.90
20811;DHT22;10566;52.928;10.522;2022-12-24T12:17:57;9.30;99.90
20811;DHT22;10566;52.928;10.522;2022-12-24T12:25:51;9.30;99.90
20811;DHT22;10566;52.928;10.522;2022-12-24T12:28:36;9.30;99.90
20811;DHT22;10566;52.928;10.522;2022-12-24T12:31:14;9.20;99.90
20811;DHT22;10566;52.928;10.522;2022-12-24T12:36:16;9.20;99.90
20811;DHT22;10566;52.928;10.522;2022-12-24T12:38:42;9.20;99.90
20811;DHT22;10566;52.928;10.522;2022-12-24T12:41:21;9.10;99.90
20811;DHT22;10566;52.928;10.522;2022-12-24T12:44:20;9.20;99.90
20811;DHT22;10566;52.928;10.522;2022-12-24T12:57:35;9.50;99.90
20811;DHT22;10566;52.928;10.522;2022-12-24T13:00:06;9.40;99.90
20811;DHT22;10566;52.928;10.522;2022-12-24T13:02:55;9.40;99.90
20811;DHT22;10566;52.928;10.522;2022-12-24T13:06:01;9.30;99.90
20811;DHT22;10566;52.928;10.522;2022-12-24T13:09:04;9.30;99.90
20811;DHT22;10566;52.928;10.522;2022-12-24T13:12:09;9.30;99.90
20811;DHT22;10566;52.928;10.522;2022-12-24T13:20:32;9.30;99.90
20811;DHT22;10566;52.928;10.522;2022-12-24T13:23:17;9.30;99.90
20811;DHT22;10566;52.928;10.522;2022-12-24T13:25:45;9.30;99.90
20811;DHT22;10566;52.928;10.522;2022-12-24T13:33:52;9.30;99.90
20811;DHT22;10566;52.928;10.522;2022-12-24T13:36:19;9.20;99.90
20811;DHT22;10566;52.928;10.522;2022-12-24T13:38:55;9.20;99.90
20811;DHT22;10566;52.928;10.522;2022-12-24T13:46:56;9.10;99.90
20811;DHT22;10566;52.928;10.522;2022-12-24T13:49:33;9.00;99.90
20811;DHT22;10566;52.928;10.522;2022-12-24T13:52:24;9.10;99.90
20811;DHT22;10566;52.928;10.522;2022-12-24T13:57:43;9.00;99.90
20811;DHT22;10566;52.928;10.522;2022-12-24T14:00:29;8.90;99.90
20811;DHT22;10566;52.928;10.522;2022-12-24T14:03:06;8.80;99.90
20811;DHT22;10566;52.928;10.522;2022-12-24T14:08:15;8.60;99.90
20811;DHT22;10566;52.928;10.522;2022-12-24T14:10:55;8.50;99.90
20811;DHT22;10566;52.928;10.522;2022-12-24T14:16:27;8.40;99.90
20811;DHT22;10566;52.928;10.522;2022-12-24T14:19:02;8.40;99.90
20811;DHT22;10566;52.928;10.522;2022-12-24T14:21:34;8.30;99.90
20811;DHT22;10566;52.928;10.522;2022-12-24T14:24:04;8.30;99.90
20811;DHT22;10566;52.928;10.522;2022-12-24T14:26:43;8.30;99.90
20811;DHT22;10566;52.928;10.522;2022-12-24T14:29:39;8.30;99.90
20811;DHT22;10566;52.928;10.522;2022-12-24T14:32:14;8.30;99.90
20811;DHT22;10566;52.928;10.522;2022-12-24T14:34:41;8.30;99.90
20811;DHT22;10566;52.928;10.522;2022-12-24T14:37:09;8.30;99.90
20811;DHT22;10566;52.928;10.522;2022-12-24T14:39:44;8.20;99.90
20811;DHT22;10566;52.928;10.522;2022-12-24T14:56:43;8.20;99.90
20811;DHT22;10566;52.928;10.522;2022-12-24T14:59:16;8.10;99.90
20811;DHT22;10566;52.928;10.522;2022-12-24T15:01:43;8.10;99.90
20811;DHT22;10566;52.928;10.522;2022-12-24T15:06:41;8.10;99.90
20811;DHT22;10566;52.928;10.522;2022-12-24T15:09:26;8.10;99.90
20811;DHT22;10566;52.928;10.522;2022-12-24T15:11:56;8.00;99.90
20811;DHT22;10566;52.928;10.522;2022-12-24T15:14:25;8.00;99.90
20811;DHT22;10566;52.928;10.522;2022-12-24T15:16:57;8.00;99.90
20811;DHT22;10566;52.928;10.522;2022-12-24T15:19:38;8.00;99.90
20811;DHT22;10566;52.928;10.522;2022-12-24T15:22:09;8.00;99.90
20811;DHT22;10566;52.928;10.522;2022-12-24T15:24:43;8.00;99.90
20811;DHT22;10566;52.928;10.522;2022-12-24T15:27:19;7.90;99.90
20811;DHT22;10566;52.928;10.522;2022-12-24T15:29:48;7.90;99.90
20811;DHT22;10566;52.928;10.522;2022-12-24T15:32:15;7.90;99.90
20811;DHT22;10566;52.928;10.522;2022-12-24T15:34:46;7.90;99.90
20811;DHT22;10566;52.928;10.522;2022-12-24T15:37:26;7.90;99.90
20811;DHT22;10566;52.928;10.522;2022-12-24T15:39:57;7.90;99.90
20811;DHT22;10566;52.928;10.522;2022-12-24T15:42:25;7.90;99.90
20811;DHT22;10566;52.928;10.522;2022-12-24T15:45:02;7.90;99.90
20811;DHT22;10566;52.928;10.522;2022-12-24T15:47:33;7.90;99.90
20811;DHT22;10566;52.928;10.522;2022-12-24T15:52:39;7.90;99.90
20811;DHT22;10566;52.928;10.522;2022-12-24T15:55:33;7.90;99.90
20811;DHT22;10566;52.928;10.522;2022-12-24T15:57:59;7.90;99.90
20811;DHT22;10566;52.928;10.522;2022-12-24T16:00:27;7.90;99.90
20811;DHT22;10566;52.928;10.522;2022-12-24T16:03:09;7.90;99.90
20811;DHT22;10566;52.928;10.522;2022-12-24T16:05:36;7.90;99.90
20811;DHT22;10566;52.928;10.522;2022-12-24T16:10:45;7.90;99.90
20811;DHT22;10566;52.928;10.522;2022-12-24T16:15:45;7.90;99.90
20811;DHT22;10566;52.928;10.522;2022-12-24T16:18:17;7.90;99.90
20811;DHT22;10566;52.928;10.522;2022-12-24T16:20:48;7.90;99.90
20811;DHT22;10566;52.928;10.522;2022-12-24T16:23:20;8.00;99.90
20811;DHT22;10566;52.928;10.522;2022-12-24T16:25:46;8.00;99.90
20811;DHT22;10566;52.928;10.522;2022-12-24T16:28:12;8.00;99.90
20811;DHT22;10566;52.928;10.522;2022-12-24T16:30:38;8.00;99.90
20811;DHT22;10566;52.928;10.522;2022-12-24T16:33:04;8.00;99.90
20811;DHT22;10566;52.928;10.522;2022-12-24T16:35:31;8.00;99.90
20811;DHT22;10566;52.928;10.522;2022-12-24T16:38:01;7.90;99.90
20811;DHT22;10566;52.928;10.522;2022-12-24T16:40:27;7.90;99.90
20811;DHT22;10566;52.928;10.522;2022-12-24T16:42:52;7.90;99.90
20811;DHT22;10566;52.928;10.522;2022-12-24T16:45:37;7.80;99.90
20811;DHT22;10566;52.928;10.522;2022-12-24T16:48:05;7.80;99.90
20811;DHT22;10566;52.928;10.522;2022-12-24T16:50:30;7.70;99.90
20811;DHT22;10566;52.928;10.522;2022-12-24T16:52:56;7.70;99.90
20811;DHT22;10566;52.928;10.522;2022-12-24T16:55:22;7.60;99.90
20811;DHT22;10566;52.928;10.522;2022-12-24T16:57:47;7.60;99.90
20811;DHT22;10566;52.928;10.522;2022-12-24T17:00:21;7.50;99.90
20811;DHT22;10566;52.928;10.522;2022-12-24T17:02:47;7.50;99.90
20811;DHT22;10566;52.928;10.522;2022-12-24T17:05:13;7.50;99.90
20811;DHT22;10566;52.928;10.522;2022-12-24T17:07:39;7.40;99.90
20811;DHT22;10566;52.928;10.522;2022-12-24T17:10:11;7.40;99.90
20811;DHT22;10566;52.928;10.522;2022-12-24T17:12:38;7.30;99.90
20811;DHT22;10566;52.928;10.522;2022-12-24T17:15:03;7.30;99.90
20811;DHT22;10566;52.928;10.522;2022-12-24T17:17:30;7.40;99.90
20811;DHT22;10566;52.928;10.522;2022-12-24T17:19:56;7.40;99.90
20811;DHT22;10566;52.928;10.522;2022-12-24T17:22:23;7.50;99.90
20811;DHT22;10566;52.928;10.522;2022-12-24T17:24:48;7.50;99.90
20811;DHT22;10566;52.928;10.522;2022-12-24T17:27:14;7.50;99.90
20811;DHT22;10566;52.928;10.522;2022-12-24T17:29:40;7.40;99.90
20811;DHT22;10566;52.928;10.522;2022-12-24T17:32:05;7.40;99.90
20811;DHT22;10566;52.928;10.522;2022-12-24T17:34:31;7.40;99.90
20811;DHT22;10566;52.928;10.522;2022-12-24T17:36:57;7.40;99.90